Bourbon Evolution804 — FJZC — position and weather

sailwx.info

Track history (hours):
 
Tides and Currents Weather Stations Pressure Air Temp Water Temp Dewpoint Dewpoint Depression Visibility Wind Speed Wind Dir Waves Ship Positions

Bourbon Evolution804

Last reported at 2018-Jun-09 18:10 UTC. Time now 2018-Jun-19 12:27 UTC.
Position S 05°21' E 011°58'.
Warning: this ship's position is 9 days out of date.

Length 100 m; draft 6.3 m.

Type: Ship. MMSI: 228095800.

Date/timePositionNaut miles runAvg speedWind from/ knotsBaromVisibWave heightAir tempDewpointWater temp
2018-Jun-09 18:10S 05°21' E 011°58'40 1.5
2018-Jun-08 15:21S 06°02' E 011°55'2 6.9
2018-Jun-08 15:00S 06°04' E 011°54'23 6.7
2018-Jun-08 11:37S 06°26' E 011°54'21 7.3
2018-Jun-08 08:43S 06°46' E 012°02'58 7.2
2018-Jun-08 00:41S 07°37' E 012°30'3 7.2
2018-Jun-08 00:15S 07°40' E 012°32'4 6.7
2018-Jun-07 23:40S 07°43' E 012°34'3 7.5
2018-Jun-07 23:17S 07°45' E 012°36'7 7.6
2018-Jun-07 22:20S 07°51' E 012°40'3 7.5
2018-Jun-07 22:00S 07°53' E 012°41'4 7.4
2018-Jun-07 21:30S 07°56' E 012°44'4 7.4
2018-Jun-07 21:00S 07°59' E 012°46'4 7.4
2018-Jun-07 20:29S 08°02' E 012°48'4 7.4
2018-Jun-07 20:00S 08°05' E 012°50'4 7.6
2018-Jun-07 19:30S 08°09' E 012°52'4 7.5
2018-Jun-07 19:00S 08°12' E 012°54'4 7.0
2018-Jun-07 18:30S 08°14' E 012°56'4 7.4
2018-Jun-07 18:01S 08°17' E 012°58'4 7.2
2018-Jun-07 17:29S 08°20' E 013°00'3 7.1
2018-Jun-07 17:01S 08°23' E 013°02'4 7.0
2018-Jun-07 16:30S 08°26' E 013°04'4 7.1
2018-Jun-07 16:00S 08°29' E 013°06'6 7.1
2018-Jun-07 15:12S 08°34' E 013°09'1 6.8
2018-Jun-07 15:00S 08°35' E 013°10'3 6.8
2018-Jun-07 14:29S 08°38' E 013°12'3 6.8
2018-Jun-07 14:00S 08°41' E 013°14'4 6.9
2018-Jun-07 13:29S 08°44' E 013°16'4 1.2
2018-Jun-07 10:21S 08°47' E 013°16'0 0.0
2018-Jun-07 09:57S 08°47' E 013°16'0 0.0
2018-Jun-07 09:30S 08°47' E 013°16'0 0.0
2018-Jun-07 08:27S 08°47' E 013°16'0 0.0
2018-Jun-06 21:39S 08°47' E 013°16'0 0.0
2018-Jun-06 21:30S 08°47' E 013°16'0 0.0
2018-Jun-06 21:00S 08°47' E 013°16'0 0.0
2018-Jun-06 20:30S 08°47' E 013°16'0 0.0
2018-Jun-06 19:57S 08°47' E 013°16'0 0.0
2018-Jun-06 19:12S 08°47' E 013°16'0 0.0
2018-Jun-06 19:00S 08°47' E 013°16'0 0.0
2018-Jun-06 18:30S 08°47' E 013°16'0 0.0
2018-Jun-06 18:00S 08°47' E 013°16'0 0.0
2018-Jun-06 17:30S 08°47' E 013°16'0 0.0
2018-Jun-06 17:00S 08°47' E 013°16'0 0.0
2018-Jun-06 16:27S 08°47' E 013°16'0 0.0
2018-Jun-06 15:57S 08°47' E 013°16'0 0.0
2018-Jun-06 15:30S 08°47' E 013°16'0 0.0
2018-Jun-06 15:00S 08°47' E 013°16'  
2018-Jun-02 20:46S 07°30' E 012°25'4 6.5
2018-Jun-02 20:11S 07°27' E 012°23'6 6.4
2018-Jun-02 19:10S 07°21' E 012°19'1 6.4
2018-Jun-02 19:00S 07°20' E 012°19'3 6.4
2018-Jun-02 18:30S 07°18' E 012°17'3 6.4
2018-Jun-02 18:00S 07°15' E 012°15'  
Track history (hours):
 
Tides and Currents Weather Stations Pressure Air Temp Water Temp Dewpoint Dewpoint Depression Visibility Wind Speed Wind Dir Waves Ship Positions

Bourbon Evolution804

Last reported at 2018-Jun-09 18:10 UTC. Time now 2018-Jun-19 12:27 UTC.
Position S 05°21' E 011°58'.
Warning: this ship's position is 9 days out of date.

Length 100 m; draft 6.3 m.

Type: Ship. MMSI: 228095800.

Date/timePositionNaut miles runAvg speedWind from/ knotsBaromVisibWave heightAir tempDewpointWater temp
2018-Jun-09 18:10S 05°21' E 011°58'40 1.5
2018-Jun-08 15:21S 06°02' E 011°55'2 6.9
2018-Jun-08 15:00S 06°04' E 011°54'23 6.7
2018-Jun-08 11:37S 06°26' E 011°54'21 7.3
2018-Jun-08 08:43S 06°46' E 012°02'58 7.2
2018-Jun-08 00:41S 07°37' E 012°30'3 7.2
2018-Jun-08 00:15S 07°40' E 012°32'4 6.7
2018-Jun-07 23:40S 07°43' E 012°34'3 7.5
2018-Jun-07 23:17S 07°45' E 012°36'7 7.6
2018-Jun-07 22:20S 07°51' E 012°40'3 7.5
2018-Jun-07 22:00S 07°53' E 012°41'4 7.4
2018-Jun-07 21:30S 07°56' E 012°44'4 7.4
2018-Jun-07 21:00S 07°59' E 012°46'4 7.4
2018-Jun-07 20:29S 08°02' E 012°48'4 7.4
2018-Jun-07 20:00S 08°05' E 012°50'4 7.6
2018-Jun-07 19:30S 08°09' E 012°52'4 7.5
2018-Jun-07 19:00S 08°12' E 012°54'4 7.0
2018-Jun-07 18:30S 08°14' E 012°56'4 7.4
2018-Jun-07 18:01S 08°17' E 012°58'4 7.2
2018-Jun-07 17:29S 08°20' E 013°00'3 7.1
2018-Jun-07 17:01S 08°23' E 013°02'4 7.0
2018-Jun-07 16:30S 08°26' E 013°04'4 7.1
2018-Jun-07 16:00S 08°29' E 013°06'6 7.1
2018-Jun-07 15:12S 08°34' E 013°09'1 6.8
2018-Jun-07 15:00S 08°35' E 013°10'3 6.8
2018-Jun-07 14:29S 08°38' E 013°12'3 6.8
2018-Jun-07 14:00S 08°41' E 013°14'4 6.9
2018-Jun-07 13:29S 08°44' E 013°16'4 1.2
2018-Jun-07 10:21S 08°47' E 013°16'0 0.0
2018-Jun-07 09:57S 08°47' E 013°16'0 0.0
2018-Jun-07 09:30S 08°47' E 013°16'0 0.0
2018-Jun-07 08:27S 08°47' E 013°16'0 0.0
2018-Jun-06 21:39S 08°47' E 013°16'0 0.0
2018-Jun-06 21:30S 08°47' E 013°16'0 0.0
2018-Jun-06 21:00S 08°47' E 013°16'0 0.0
2018-Jun-06 20:30S 08°47' E 013°16'0 0.0
2018-Jun-06 19:57S 08°47' E 013°16'0 0.0
2018-Jun-06 19:12S 08°47' E 013°16'0 0.0
2018-Jun-06 19:00S 08°47' E 013°16'0 0.0
2018-Jun-06 18:30S 08°47' E 013°16'0 0.0
2018-Jun-06 18:00S 08°47' E 013°16'0 0.0
2018-Jun-06 17:30S 08°47' E 013°16'0 0.0
2018-Jun-06 17:00S 08°47' E 013°16'0 0.0
2018-Jun-06 16:27S 08°47' E 013°16'0 0.0
2018-Jun-06 15:57S 08°47' E 013°16'0 0.0
2018-Jun-06 15:30S 08°47' E 013°16'0 0.0
2018-Jun-06 15:00S 08°47' E 013°16'  
2018-Jun-02 20:46S 07°30' E 012°25'4 6.5
2018-Jun-02 20:11S 07°27' E 012°23'6 6.4
2018-Jun-02 19:10S 07°21' E 012°19'1 6.4
2018-Jun-02 19:00S 07°20' E 012°19'3 6.4
2018-Jun-02 18:30S 07°18' E 012°17'3 6.4
2018-Jun-02 18:00S 07°15' E 012°15'  

Dump ship's entire track history